sensor_id;sensor_type;location;lat;lon;timestamp;pressure;altitude;pressure_sealevel;temperature;humidity
43621;BME280;29213;50.770;7.298;2023-04-02T00:07:49;99897.13;;;8.12;65.84
43621;BME280;29213;50.770;7.298;2023-04-02T00:10:33;99961.50;;;8.56;65.82
43621;BME280;29213;50.770;7.298;2023-04-02T00:15:37;99959.19;;;8.45;66.01
43621;BME280;29213;50.770;7.298;2023-04-02T00:18:04;99975.94;;;8.53;66.11
43621;BME280;29213;50.770;7.298;2023-04-02T00:20:34;99890.78;;;7.88;66.11
43621;BME280;29213;50.770;7.298;2023-04-02T00:23:03;99738.94;;;7.03;65.95
43621;BME280;29213;50.770;7.298;2023-04-02T00:25:33;99980.25;;;8.54;66.17
43621;BME280;29213;50.770;7.298;2023-04-02T00:28:00;99912.50;;;8.00;66.06
43621;BME280;29213;50.770;7.298;2023-04-02T00:30:27;99886.94;;;7.83;65.95
43621;BME280;29213;50.770;7.298;2023-04-02T00:32:53;99807.69;;;7.38;66.10
43621;BME280;29213;50.770;7.298;2023-04-02T00:35:25;99946.88;;;8.19;66.33
43621;BME280;29213;50.770;7.298;2023-04-02T00:37:51;99942.72;;;8.08;66.00
43621;BME280;29213;50.770;7.298;2023-04-02T00:40:25;99814.78;;;7.29;66.18
43621;BME280;29213;50.770;7.298;2023-04-02T00:42:53;99683.66;;;6.49;66.09
43621;BME280;29213;50.770;7.298;2023-04-02T00:45:28;99992.03;;;8.43;65.99
43621;BME280;29213;50.770;7.298;2023-04-02T00:47:59;99632.53;;;6.05;66.07
43621;BME280;29213;50.770;7.298;2023-04-02T00:50:40;99746.75;;;6.70;66.09
43621;BME280;29213;50.770;7.298;2023-04-02T00:53:13;99999.31;;;8.33;66.12
43621;BME280;29213;50.770;7.298;2023-04-02T00:55:42;99753.25;;;6.84;65.90
43621;BME280;29213;50.770;7.298;2023-04-02T00:58:21;100024.38;;;8.55;66.05
43621;BME280;29213;50.770;7.298;2023-04-02T01:00:50;99979.06;;;8.24;65.99
43621;BME280;29213;50.770;7.298;2023-04-02T01:05:59;100033.81;;;8.58;66.13
43621;BME280;29213;50.770;7.298;2023-04-02T01:14:16;99917.56;;;7.60;66.15
43621;BME280;29213;50.770;7.298;2023-04-02T01:25:49;99844.38;;;7.16;66.04
43621;BME280;29213;50.770;7.298;2023-04-02T01:28:22;99811.72;;;6.99;66.28
43621;BME280;29213;50.770;7.298;2023-04-02T01:30:54;99959.72;;;7.88;66.13
43621;BME280;29213;50.770;7.298;2023-04-02T01:33:39;99781.03;;;6.80;66.35
43621;BME280;29213;50.770;7.298;2023-04-02T01:36:12;100041.41;;;8.36;66.40
43621;BME280;29213;50.770;7.298;2023-04-02T01:39:31;99852.78;;;7.03;66.14
43621;BME280;29213;50.770;7.298;2023-04-02T01:41:46;100052.38;;;8.41;66.21
43621;BME280;29213;50.770;7.298;2023-04-02T01:44:20;100096.38;;;8.61;66.40
43621;BME280;29213;50.770;7.298;2023-04-02T01:46:48;100077.28;;;8.49;66.49
43621;BME280;29213;50.770;7.298;2023-04-02T01:49:18;100099.03;;;8.61;66.37
43621;BME280;29213;50.770;7.298;2023-04-02T01:51:49;100084.94;;;8.60;66.39
43621;BME280;29213;50.770;7.298;2023-04-02T01:54:16;100112.28;;;8.61;66.51
43621;BME280;29213;50.770;7.298;2023-04-02T01:56:43;100068.94;;;8.35;66.35
43621;BME280;29213;50.770;7.298;2023-04-02T01:59:10;99822.22;;;6.82;66.40
43621;BME280;29213;50.770;7.298;2023-04-02T02:01:50;99871.69;;;7.17;66.44
43621;BME280;29213;50.770;7.298;2023-04-02T02:04:17;100087.88;;;8.40;66.44
43621;BME280;29213;50.770;7.298;2023-04-02T02:06:44;100098.69;;;8.47;66.34
43621;BME280;29213;50.770;7.298;2023-04-02T02:09:19;100127.56;;;8.59;66.64
43621;BME280;29213;50.770;7.298;2023-04-02T02:11:47;100123.91;;;8.60;66.50
43621;BME280;29213;50.770;7.298;2023-04-02T02:14:21;100129.38;;;8.58;66.55
43621;BME280;29213;50.770;7.298;2023-04-02T02:16:48;100080.38;;;8.27;66.58
43621;BME280;29213;50.770;7.298;2023-04-02T02:19:20;100044.44;;;7.98;66.59
43621;BME280;29213;50.770;7.298;2023-04-02T02:21:53;99795.69;;;6.39;66.27
43621;BME280;29213;50.770;7.298;2023-04-02T02:24:30;100148.13;;;8.56;66.66
43621;BME280;29213;50.770;7.298;2023-04-02T02:27:11;100148.13;;;8.56;66.65
43621;BME280;29213;50.770;7.298;2023-04-02T02:29:43;100080.31;;;8.11;66.41
43621;BME280;29213;50.770;7.298;2023-04-02T02:32:11;100156.91;;;8.49;66.54
43621;BME280;29213;50.770;7.298;2023-04-02T02:34:42;100058.47;;;7.82;66.62
43621;BME280;29213;50.770;7.298;2023-04-02T02:37:17;100167.38;;;8.59;66.77
43621;BME280;29213;50.770;7.298;2023-04-02T02:39:47;100132.44;;;8.28;66.61
43621;BME280;29213;50.770;7.298;2023-04-02T02:42:25;100036.69;;;7.70;66.82
43621;BME280;29213;50.770;7.298;2023-04-02T02:44:54;100187.28;;;8.54;66.85
43621;BME280;29213;50.770;7.298;2023-04-02T02:47:24;100191.72;;;8.54;66.83
43621;BME280;29213;50.770;7.298;2023-04-02T02:49:54;100181.75;;;8.48;66.83
43621;BME280;29213;50.770;7.298;2023-04-02T02:52:25;100107.22;;;7.98;66.76
43621;BME280;29213;50.770;7.298;2023-04-02T02:54:55;100203.19;;;8.54;66.88
43621;BME280;29213;50.770;7.298;2023-04-02T02:57:26;100182.53;;;8.32;66.85
43621;BME280;29213;50.770;7.298;2023-04-02T02:59:55;100138.31;;;8.06;66.83
43621;BME280;29213;50.770;7.298;2023-04-02T03:02:23;100083.56;;;7.70;66.77
43621;BME280;29213;50.770;7.298;2023-04-02T03:04:50;100221.47;;;8.58;66.96
43621;BME280;29213;50.770;7.298;2023-04-02T03:07:18;100122.81;;;7.93;66.84
43621;BME280;29213;50.770;7.298;2023-04-02T03:10:16;100221.78;;;8.54;66.93
43621;BME280;29213;50.770;7.298;2023-04-02T03:12:52;99952.75;;;6.83;66.57
43621;BME280;29213;50.770;7.298;2023-04-02T03:15:35;100149.50;;;7.99;66.69
43621;BME280;29213;50.770;7.298;2023-04-02T03:20:39;100242.34;;;8.52;67.01
43621;BME280;29213;50.770;7.298;2023-04-02T03:25:46;100180.44;;;8.09;66.76
43621;BME280;29213;50.770;7.298;2023-04-02T03:28:16;100086.22;;;7.43;66.88
43621;BME280;29213;50.770;7.298;2023-04-02T03:30:57;100239.28;;;8.39;67.15
43621;BME280;29213;50.770;7.298;2023-04-02T03:33:32;100174.34;;;7.90;67.05
43621;BME280;29213;50.770;7.298;2023-04-02T03:36:19;100269.84;;;8.51;66.79
43621;BME280;29213;50.770;7.298;2023-04-02T03:41:44;100253.81;;;8.26;66.76
43621;BME280;29213;50.770;7.298;2023-04-02T03:44:30;100187.91;;;7.87;66.64
43621;BME280;29213;50.770;7.298;2023-04-02T03:47:03;100242.34;;;8.26;66.42
43621;BME280;29213;50.770;7.298;2023-04-02T03:49:41;100270.25;;;8.30;66.72
43621;BME280;29213;50.770;7.298;2023-04-02T03:52:27;100219.81;;;8.03;66.25
43621;BME280;29213;50.770;7.298;2023-04-02T03:54:55;100180.88;;;7.77;66.54
43621;BME280;29213;50.770;7.298;2023-04-02T04:00:32;100145.56;;;7.50;66.36
43621;BME280;29213;50.770;7.298;2023-04-02T04:03:15;100175.38;;;7.71;66.58
43621;BME280;29213;50.770;7.298;2023-04-02T04:06:07;100172.66;;;7.62;66.71
43621;BME280;29213;50.770;7.298;2023-04-02T04:08:38;100320.09;;;8.45;66.57
43621;BME280;29213;50.770;7.298;2023-04-02T04:11:18;100195.06;;;7.68;66.64
43621;BME280;29213;50.770;7.298;2023-04-02T04:14:00;100251.78;;;8.02;66.88
43621;BME280;29213;50.770;7.298;2023-04-02T04:16:41;100269.78;;;8.08;66.82
43621;BME280;29213;50.770;7.298;2023-04-02T04:19:17;100240.63;;;7.90;66.77
43621;BME280;29213;50.770;7.298;2023-04-02T04:21:46;100347.53;;;8.53;66.47
43621;BME280;29213;50.770;7.298;2023-04-02T04:24:19;100357.69;;;8.40;66.33
43621;BME280;29213;50.770;7.298;2023-04-02T04:26:53;100360.94;;;8.52;66.38
43621;BME280;29213;50.770;7.298;2023-04-02T04:29:50;100347.56;;;8.35;66.09
43621;BME280;29213;50.770;7.298;2023-04-02T04:32:28;100384.97;;;8.50;65.80
43621;BME280;29213;50.770;7.298;2023-04-02T04:35:18;100271.22;;;7.84;65.72
43621;BME280;29213;50.770;7.298;2023-04-02T04:37:47;100371.06;;;8.30;65.64
43621;BME280;29213;50.770;7.298;2023-04-02T04:40:27;100389.72;;;8.38;65.53
43621;BME280;29213;50.770;7.298;2023-04-02T04:42:58;100378.97;;;8.22;65.62
43621;BME280;29213;50.770;7.298;2023-04-02T04:45:44;100294.34;;;7.56;65.08
43621;BME280;29213;50.770;7.298;2023-04-02T04:48:22;100352.06;;;7.98;64.94
43621;BME280;29213;50.770;7.298;2023-04-02T04:53:20;100418.53;;;8.33;65.12
43621;BME280;29213;50.770;7.298;2023-04-02T04:55:47;100314.34;;;7.50;64.31
43621;BME280;29213;50.770;7.298;2023-04-02T04:58:21;100170.78;;;6.64;64.51
43621;BME280;29213;50.770;7.298;2023-04-02T05:03:33;100443.25;;;8.15;64.46
43621;BME280;29213;50.770;7.298;2023-04-02T05:08:50;100342.41;;;7.43;64.58
43621;BME280;29213;50.770;7.298;2023-04-02T05:11:24;100423.59;;;7.90;64.37
43621;BME280;29213;50.770;7.298;2023-04-02T05:13:53;100411.72;;;7.66;64.16
43621;BME280;29213;50.770;7.298;2023-04-02T05:16:27;100482.66;;;8.10;63.66
43621;BME280;29213;50.770;7.298;2023-04-02T05:19:01;100246.28;;;6.58;63.62
43621;BME280;29213;50.770;7.298;2023-04-02T05:21:47;100200.88;;;6.15;63.64
43621;BME280;29213;50.770;7.298;2023-04-02T05:26:46;100460.16;;;7.58;63.43
43621;BME280;29213;50.770;7.298;2023-04-02T05:29:24;100500.44;;;7.72;63.67
43621;BME280;29213;50.770;7.298;2023-04-02T05:32:07;100456.19;;;7.44;63.69
43621;BME280;29213;50.770;7.298;2023-04-02T05:34:37;100460.56;;;7.35;63.49
43621;BME280;29213;50.770;7.298;2023-04-02T05:37:04;100464.88;;;7.36;63.32
43621;BME280;29213;50.770;7.298;2023-04-02T05:39:31;100429.56;;;7.08;63.80
43621;BME280;29213;50.770;7.298;2023-04-02T05:44:33;100494.34;;;7.23;63.50
43621;BME280;29213;50.770;7.298;2023-04-02T05:47:11;100501.19;;;7.26;62.95
43621;BME280;29213;50.770;7.298;2023-04-02T05:52:05;100564.66;;;7.56;63.27
43621;BME280;29213;50.770;7.298;2023-04-02T05:54:41;100551.56;;;7.54;63.19
43621;BME280;29213;50.770;7.298;2023-04-02T05:57:13;100531.41;;;7.33;63.28
43621;BME280;29213;50.770;7.298;2023-04-02T05:59:44;100544.94;;;7.30;63.26
43621;BME280;29213;50.770;7.298;2023-04-02T06:05:04;100513.94;;;6.83;63.51
43621;BME280;29213;50.770;7.298;2023-04-02T06:07:45;100506.28;;;6.80;63.13
43621;BME280;29213;50.770;7.298;2023-04-02T06:10:33;100356.63;;;5.88;63.36
43621;BME280;29213;50.770;7.298;2023-04-02T06:13:07;100545.81;;;7.01;63.15
43621;BME280;29213;50.770;7.298;2023-04-02T06:15:35;100552.38;;;6.97;63.12
43621;BME280;29213;50.770;7.298;2023-04-02T06:18:12;100616.31;;;7.42;63.16
43621;BME280;29213;50.770;7.298;2023-04-02T06:20:39;100587.22;;;7.02;62.49
43621;BME280;29213;50.770;7.298;2023-04-02T06:23:15;100577.06;;;6.88;63.02
43621;BME280;29213;50.770;7.298;2023-04-02T06:25:54;100636.13;;;7.18;63.30
43621;BME280;29213;50.770;7.298;2023-04-02T06:28:47;100575.38;;;6.67;62.82
43621;BME280;29213;50.770;7.298;2023-04-02T06:31:54;100598.25;;;6.88;63.32
43621;BME280;29213;50.770;7.298;2023-04-02T06:34:23;100660.81;;;7.28;64.48
43621;BME280;29213;50.770;7.298;2023-04-02T06:36:54;100656.75;;;7.54;66.33
43621;BME280;29213;50.770;7.298;2023-04-02T06:39:23;100659.63;;;7.70;65.19
43621;BME280;29213;50.770;7.298;2023-04-02T06:41:56;100627.00;;;7.60;62.46
43621;BME280;29213;50.770;7.298;2023-04-02T06:44:24;100636.09;;;7.57;61.44
43621;BME280;29213;50.770;7.298;2023-04-02T06:46:58;100675.38;;;7.82;61.75
43621;BME280;29213;50.770;7.298;2023-04-02T06:49:47;100680.44;;;7.65;60.77
43621;BME280;29213;50.770;7.298;2023-04-02T06:52:23;100696.34;;;7.55;61.16
43621;BME280;29213;50.770;7.298;2023-04-02T06:54:50;100538.47;;;6.55;60.66
43621;BME280;29213;50.770;7.298;2023-04-02T06:57:16;100614.53;;;6.93;61.20
43621;BME280;29213;50.770;7.298;2023-04-02T06:59:41;100711.28;;;7.56;60.73
43621;BME280;29213;50.770;7.298;2023-04-02T07:04:44;100607.97;;;6.87;61.09
43621;BME280;29213;50.770;7.298;2023-04-02T07:07:10;100474.47;;;6.01;61.07
43621;BME280;29213;50.770;7.298;2023-04-02T07:09:36;100736.25;;;7.44;60.93
43621;BME280;29213;50.770;7.298;2023-04-02T07:12:01;100688.84;;;7.21;60.64
43621;BME280;29213;50.770;7.298;2023-04-02T07:14:34;100643.06;;;6.60;60.67
43621;BME280;29213;50.770;7.298;2023-04-02T07:17:00;100486.78;;;5.71;60.41
43621;BME280;29213;50.770;7.298;2023-04-02T07:19:25;100680.56;;;6.75;60.29
43621;BME280;29213;50.770;7.298;2023-04-02T07:21:51;100682.09;;;6.67;60.65
43621;BME280;29213;50.770;7.298;2023-04-02T07:24:16;100767.50;;;7.40;61.21
43621;BME280;29213;50.770;7.298;2023-04-02T07:26:42;100717.38;;;6.98;60.48
43621;BME280;29213;50.770;7.298;2023-04-02T07:29:10;100767.91;;;7.26;60.67
43621;BME280;29213;50.770;7.298;2023-04-02T07:31:37;100791.31;;;7.30;60.55
43621;BME280;29213;50.770;7.298;2023-04-02T07:34:05;100691.56;;;6.70;60.36
43621;BME280;29213;50.770;7.298;2023-04-02T07:36:31;100766.78;;;7.18;60.47
43621;BME280;29213;50.770;7.298;2023-04-02T07:38:56;100520.56;;;5.67;60.65
43621;BME280;29213;50.770;7.298;2023-04-02T07:41:22;100768.88;;;7.25;60.24
43621;BME280;29213;50.770;7.298;2023-04-02T07:43:47;100787.56;;;7.23;60.26
43621;BME280;29213;50.770;7.298;2023-04-02T07:46:13;100791.03;;;7.23;60.03
43621;BME280;29213;50.770;7.298;2023-04-02T07:48:41;100781.69;;;7.19;59.35
43621;BME280;29213;50.770;7.298;2023-04-02T07:51:15;100826.91;;;7.47;60.15
43621;BME280;29213;50.770;7.298;2023-04-02T07:53:41;100798.56;;;7.28;60.02
43621;BME280;29213;50.770;7.298;2023-04-02T07:56:07;100834.75;;;7.49;59.53
43621;BME280;29213;50.770;7.298;2023-04-02T07:58:33;100798.56;;;7.18;59.77
43621;BME280;29213;50.770;7.298;2023-04-02T08:00:59;100839.31;;;7.47;58.84
43621;BME280;29213;50.770;7.298;2023-04-02T08:03:26;100750.38;;;6.74;59.39
43621;BME280;29213;50.770;7.298;2023-04-02T08:05:53;100851.44;;;7.40;59.57
43621;BME280;29213;50.770;7.298;2023-04-02T08:08:20;100609.97;;;5.93;58.59
43621;BME280;29213;50.770;7.298;2023-04-02T08:10:46;100588.72;;;5.73;58.91
43621;BME280;29213;50.770;7.298;2023-04-02T08:13:12;100785.69;;;6.94;59.36
43621;BME280;29213;50.770;7.298;2023-04-02T08:15:38;100882.59;;;7.57;59.85
43621;BME280;29213;50.770;7.298;2023-04-02T08:18:04;100596.44;;;5.86;59.18
43621;BME280;29213;50.770;7.298;2023-04-02T08:20:30;100764.06;;;6.89;59.44
43621;BME280;29213;50.770;7.298;2023-04-02T08:22:55;100896.69;;;7.68;59.25
43621;BME280;29213;50.770;7.298;2023-04-02T08:25:22;100864.16;;;7.46;58.64
43621;BME280;29213;50.770;7.298;2023-04-02T08:27:48;100733.59;;;6.63;58.89
43621;BME280;29213;50.770;7.298;2023-04-02T08:30:14;100904.81;;;7.96;63.63
43621;BME280;29213;50.770;7.298;2023-04-02T08:32:43;100656.97;;;6.52;59.97
43621;BME280;29213;50.770;7.298;2023-04-02T08:35:12;100845.34;;;7.59;58.04
43621;BME280;29213;50.770;7.298;2023-04-02T08:37:39;100783.47;;;6.99;57.88
43621;BME280;29213;50.770;7.298;2023-04-02T08:40:06;100791.28;;;7.11;58.14
43621;BME280;29213;50.770;7.298;2023-04-02T08:48:04;100947.63;;;7.71;57.75
43621;BME280;29213;50.770;7.298;2023-04-02T08:50:36;100627.75;;;5.60;56.65
43621;BME280;29213;50.770;7.298;2023-04-02T08:53:12;100961.97;;;7.59;56.94
43621;BME280;29213;50.770;7.298;2023-04-02T08:58:38;100975.66;;;7.54;59.54
43621;BME280;29213;50.770;7.298;2023-04-02T09:01:09;100934.38;;;7.30;58.61
43621;BME280;29213;50.770;7.298;2023-04-02T09:03:42;100961.38;;;7.45;58.31
43621;BME280;29213;50.770;7.298;2023-04-02T09:06:12;100982.06;;;7.61;58.62
43621;BME280;29213;50.770;7.298;2023-04-02T09:08:42;100997.19;;;7.71;57.53
43621;BME280;29213;50.770;7.298;2023-04-02T09:11:29;100900.59;;;7.13;57.24
43621;BME280;29213;50.770;7.298;2023-04-02T09:14:32;100874.59;;;6.96;57.39
43621;BME280;29213;50.770;7.298;2023-04-02T09:17:01;100864.91;;;6.86;57.98
43621;BME280;29213;50.770;7.298;2023-04-02T09:19:42;100972.81;;;7.46;57.14
43621;BME280;29213;50.770;7.298;2023-04-02T09:22:20;100657.78;;;5.59;56.75
43621;BME280;29213;50.770;7.298;2023-04-02T09:24:59;100662.50;;;5.55;56.09
43621;BME280;29213;50.770;7.298;2023-04-02T09:27:28;100567.59;;;5.00;55.49
43621;BME280;29213;50.770;7.298;2023-04-02T09:30:26;100744.19;;;6.11;56.45
43621;BME280;29213;50.770;7.298;2023-04-02T09:32:57;101034.34;;;7.90;56.27
43621;BME280;29213;50.770;7.298;2023-04-02T09:35:26;101018.91;;;7.65;56.05
43621;BME280;29213;50.770;7.298;2023-04-02T09:38:26;101015.78;;;7.49;55.82
43621;BME280;29213;50.770;7.298;2023-04-02T09:41:19;101049.81;;;7.85;55.95
43621;BME280;29213;50.770;7.298;2023-04-02T09:43:48;101061.25;;;7.76;55.37
43621;BME280;29213;50.770;7.298;2023-04-02T09:46:23;101070.31;;;7.73;55.72
43621;BME280;29213;50.770;7.298;2023-04-02T09:48:53;101074.22;;;7.79;56.17
43621;BME280;29213;50.770;7.298;2023-04-02T09:51:22;100829.72;;;6.21;55.79
43621;BME280;29213;50.770;7.298;2023-04-02T09:53:49;101025.72;;;7.26;54.97
43621;BME280;29213;50.770;7.298;2023-04-02T09:56:20;101096.19;;;7.60;55.75
43621;BME280;29213;50.770;7.298;2023-04-02T09:59:13;101096.63;;;7.65;56.16
43621;BME280;29213;50.770;7.298;2023-04-02T10:04:42;101109.78;;;7.67;55.76
43621;BME280;29213;50.770;7.298;2023-04-02T10:10:16;101122.00;;;7.36;55.98
43621;BME280;29213;50.770;7.298;2023-04-02T10:12:44;101101.66;;;7.37;55.86
43621;BME280;29213;50.770;7.298;2023-04-02T10:15:18;100938.81;;;6.35;55.65
43621;BME280;29213;50.770;7.298;2023-04-02T10:17:50;101090.25;;;7.25;55.13
43621;BME280;29213;50.770;7.298;2023-04-02T10:20:23;101145.00;;;7.57;55.55
43621;BME280;29213;50.770;7.298;2023-04-02T10:22:49;101145.84;;;7.58;55.38
43621;BME280;29213;50.770;7.298;2023-04-02T10:25:16;100800.63;;;5.46;54.93
43621;BME280;29213;50.770;7.298;2023-04-02T10:27:55;101092.03;;;7.15;55.31
43621;BME280;29213;50.770;7.298;2023-04-02T10:30:26;101107.13;;;7.03;54.90
43621;BME280;29213;50.770;7.298;2023-04-02T10:33:02;101174.28;;;7.13;55.70
43621;BME280;29213;50.770;7.298;2023-04-02T10:35:40;101182.56;;;7.20;55.49
43621;BME280;29213;50.770;7.298;2023-04-02T10:38:29;101108.56;;;6.74;55.17
43621;BME280;29213;50.770;7.298;2023-04-02T10:43:38;101011.66;;;6.18;55.71
43621;BME280;29213;50.770;7.298;2023-04-02T10:46:47;101191.22;;;7.43;55.83
43621;BME280;29213;50.770;7.298;2023-04-02T10:49:26;101160.38;;;7.21;54.70
43621;BME280;29213;50.770;7.298;2023-04-02T10:52:05;101173.31;;;7.35;54.71
43621;BME280;29213;50.770;7.298;2023-04-02T11:00:02;101219.03;;;7.70;54.47
43621;BME280;29213;50.770;7.298;2023-04-02T11:05:33;101211.50;;;7.66;54.53
43621;BME280;29213;50.770;7.298;2023-04-02T11:08:16;101226.06;;;7.81;54.32
43621;BME280;29213;50.770;7.298;2023-04-02T11:10:47;101119.50;;;7.35;62.99
43621;BME280;29213;50.770;7.298;2023-04-02T11:15:51;101172.91;;;8.35;56.36
43621;BME280;29213;50.770;7.298;2023-04-02T11:18:27;101227.63;;;8.58;54.74
43621;BME280;29213;50.770;7.298;2023-04-02T11:21:00;101246.91;;;8.60;53.08
43621;BME280;29213;50.770;7.298;2023-04-02T11:23:28;101192.78;;;8.10;53.01
43621;BME280;29213;50.770;7.298;2023-04-02T11:29:11;101217.22;;;8.13;52.81
43621;BME280;29213;50.770;7.298;2023-04-02T11:31:38;101242.97;;;8.23;52.74
43621;BME280;29213;50.770;7.298;2023-04-02T11:34:03;101211.75;;;8.05;53.15
43621;BME280;29213;50.770;7.298;2023-04-02T11:44:43;101172.47;;;7.77;53.14
43621;BME280;29213;50.770;7.298;2023-04-02T11:47:20;101204.22;;;7.89;52.70
43621;BME280;29213;50.770;7.298;2023-04-02T11:55:26;101246.56;;;8.00;52.24
43621;BME280;29213;50.770;7.298;2023-04-02T12:03:51;101311.75;;;8.14;52.37
43621;BME280;29213;50.770;7.298;2023-04-02T12:06:26;101315.97;;;8.17;53.06
43621;BME280;29213;50.770;7.298;2023-04-02T12:11:52;101323.94;;;8.17;52.09
43621;BME280;29213;50.770;7.298;2023-04-02T12:17:04;101324.75;;;7.96;51.86
43621;BME280;29213;50.770;7.298;2023-04-02T12:19:30;101327.25;;;7.98;52.96
43621;BME280;29213;50.770;7.298;2023-04-02T12:21:57;101240.38;;;7.47;52.69
43621;BME280;29213;50.770;7.298;2023-04-02T12:24:24;101292.66;;;7.78;52.38
43621;BME280;29213;50.770;7.298;2023-04-02T12:29:40;101248.38;;;7.57;52.58
43621;BME280;29213;50.770;7.298;2023-04-02T12:32:19;101243.22;;;7.56;51.91
43621;BME280;29213;50.770;7.298;2023-04-02T12:34:46;101290.88;;;7.67;52.28
43621;BME280;29213;50.770;7.298;2023-04-02T12:37:26;101344.00;;;8.10;52.10
43621;BME280;29213;50.770;7.298;2023-04-02T12:40:00;101312.25;;;7.87;53.49
43621;BME280;29213;50.770;7.298;2023-04-02T12:42:29;101352.47;;;8.25;52.29
43621;BME280;29213;50.770;7.298;2023-04-02T12:44:55;101245.56;;;7.70;52.70
43621;BME280;29213;50.770;7.298;2023-04-02T12:47:21;101273.44;;;7.86;52.00
43621;BME280;29213;50.770;7.298;2023-04-02T12:49:47;101216.25;;;7.50;52.46
43621;BME280;29213;50.770;7.298;2023-04-02T12:52:14;101294.78;;;7.84;52.15
43621;BME280;29213;50.770;7.298;2023-04-02T12:55:05;101308.50;;;7.89;51.62
43621;BME280;29213;50.770;7.298;2023-04-02T12:57:31;101374.91;;;8.32;51.19
43621;BME280;29213;50.770;7.298;2023-04-02T13:02:47;101387.88;;;8.35;51.68
43621;BME280;29213;50.770;7.298;2023-04-02T13:05:31;101380.13;;;8.43;51.76
43621;BME280;29213;50.770;7.298;2023-04-02T13:07:57;101336.69;;;8.23;51.92
43621;BME280;29213;50.770;7.298;2023-04-02T13:10:25;101385.09;;;8.58;51.53
43621;BME280;29213;50.770;7.298;2023-04-02T13:12:57;101327.63;;;8.05;50.81
43621;BME280;29213;50.770;7.298;2023-04-02T13:15:27;101325.00;;;7.93;50.90
43621;BME280;29213;50.770;7.298;2023-04-02T13:18:22;101396.88;;;8.23;51.09
43621;BME280;29213;50.770;7.298;2023-04-02T13:20:58;101330.34;;;7.82;51.37
43621;BME280;29213;50.770;7.298;2023-04-02T13:25:53;101402.59;;;8.39;51.61
43621;BME280;29213;50.770;7.298;2023-04-02T13:28:20;101401.38;;;8.43;50.97
43621;BME280;29213;50.770;7.298;2023-04-02T13:30:46;101400.84;;;8.50;51.24
43621;BME280;29213;50.770;7.298;2023-04-02T13:33:13;101401.53;;;8.52;50.89
43621;BME280;29213;50.770;7.298;2023-04-02T13:35:39;101179.91;;;7.20;50.56
43621;BME280;29213;50.770;7.298;2023-04-02T13:38:05;101402.69;;;8.59;50.43
43621;BME280;29213;50.770;7.298;2023-04-02T13:40:32;101310.59;;;8.07;51.04
43621;BME280;29213;50.770;7.298;2023-04-02T13:42:58;101159.34;;;7.12;50.79
43621;BME280;29213;50.770;7.298;2023-04-02T13:45:29;101356.56;;;8.29;50.55
43621;BME280;29213;50.770;7.298;2023-04-02T13:47:56;101305.34;;;7.96;50.48
43621;BME280;29213;50.770;7.298;2023-04-02T13:50:26;101340.13;;;8.14;50.22
43621;BME280;29213;50.770;7.298;2023-04-02T13:52:52;101345.44;;;8.14;50.54
43621;BME280;29213;50.770;7.298;2023-04-02T13:55:20;101415.09;;;8.49;50.69
43621;BME280;29213;50.770;7.298;2023-04-02T13:57:47;101422.78;;;8.52;50.46
43621;BME280;29213;50.770;7.298;2023-04-02T14:00:14;101421.81;;;8.53;50.32
43621;BME280;29213;50.770;7.298;2023-04-02T14:02:43;101068.22;;;6.38;50.68
43621;BME280;29213;50.770;7.298;2023-04-02T14:10:22;101390.22;;;8.28;49.43
43621;BME280;29213;50.770;7.298;2023-04-02T14:16:06;101395.84;;;8.14;50.06
43621;BME280;29213;50.770;7.298;2023-04-02T14:27:17;101462.59;;;8.52;50.15
43621;BME280;29213;50.770;7.298;2023-04-02T14:29:55;101451.53;;;8.47;50.55
43621;BME280;29213;50.770;7.298;2023-04-02T14:32:30;101460.66;;;8.54;50.53
43621;BME280;29213;50.770;7.298;2023-04-02T14:35:20;101467.06;;;8.51;50.09
43621;BME280;29213;50.770;7.298;2023-04-02T14:38:15;101465.25;;;8.52;50.44
43621;BME280;29213;50.770;7.298;2023-04-02T14:40:44;101477.44;;;8.54;50.61
43621;BME280;29213;50.770;7.298;2023-04-02T14:43:30;101473.69;;;8.57;50.56
43621;BME280;29213;50.770;7.298;2023-04-02T14:46:02;101448.94;;;8.35;49.88
43621;BME280;29213;50.770;7.298;2023-04-02T14:48:51;101482.16;;;8.51;50.04
43621;BME280;29213;50.770;7.298;2023-04-02T14:51:43;101478.59;;;8.40;49.94
43621;BME280;29213;50.770;7.298;2023-04-02T14:54:33;101415.31;;;7.92;49.98
43621;BME280;29213;50.770;7.298;2023-04-02T14:57:08;101410.03;;;7.80;49.40
43621;BME280;29213;50.770;7.298;2023-04-02T14:59:45;101360.34;;;7.49;49.16
43621;BME280;29213;50.770;7.298;2023-04-02T15:05:18;101316.06;;;7.40;49.99
43621;BME280;29213;50.770;7.298;2023-04-02T15:07:55;101501.16;;;8.46;48.82
43621;BME280;29213;50.770;7.298;2023-04-02T15:10:35;101426.50;;;7.95;48.91
43621;BME280;29213;50.770;7.298;2023-04-02T15:13:09;101445.34;;;7.92;48.64
43621;BME280;29213;50.770;7.298;2023-04-02T15:15:49;101520.53;;;8.25;48.52
43621;BME280;29213;50.770;7.298;2023-04-02T15:18:16;101441.75;;;7.70;48.31
43621;BME280;29213;50.770;7.298;2023-04-02T15:21:13;101415.41;;;7.57;48.63
43621;BME280;29213;50.770;7.298;2023-04-02T15:24:13;101481.66;;;8.57;56.76
43621;BME280;29213;50.770;7.298;2023-04-02T15:29:44;101523.28;;;8.56;48.00
43621;BME280;29213;50.770;7.298;2023-04-02T15:32:42;101492.16;;;8.26;47.24
43621;BME280;29213;50.770;7.298;2023-04-02T15:37:57;101539.81;;;8.27;47.00
43621;BME280;29213;50.770;7.298;2023-04-02T15:43:38;101363.19;;;6.79;47.18
43621;BME280;29213;50.770;7.298;2023-04-02T15:46:20;101546.97;;;7.93;47.45
43621;BME280;29213;50.770;7.298;2023-04-02T15:52:16;101523.00;;;7.37;47.07
43621;BME280;29213;50.770;7.298;2023-04-02T15:58:20;101459.97;;;6.83;47.10
43621;BME280;29213;50.770;7.298;2023-04-02T16:01:00;101517.47;;;7.17;47.95
43621;BME280;29213;50.770;7.298;2023-04-02T16:06:21;101596.16;;;7.74;51.37
43621;BME280;29213;50.770;7.298;2023-04-02T16:11:24;101557.72;;;7.45;46.68
43621;BME280;29213;50.770;7.298;2023-04-02T16:13:51;101610.75;;;7.68;45.93
43621;BME280;29213;50.770;7.298;2023-04-02T16:16:26;101279.06;;;5.54;45.71